Terminal Aerodrome Forecast
Issued by NWS

Home | Current Version | Previous Version | Text Only | Print | Product List | Glossary On
Versions: 1 2 3 4 5 6 7 8 9 10 11 12 13 14 15 16 17
000
FTUS42 KTAE 251721
TAFVLD
TAF
KVLD 251721Z 2518/2618 20006KT P6SM BKN035
      TEMPO 2518/2520 6SM SHRA BR
     FM260700 00000KT 2SM BR OVC003
     FM261400 20004KT P6SM BKN015
     FM261700 20006KT P6SM BKN035=

USA.gov is the U.S. government's official web portal to all federal, state and local government web resources and services.